Time;durP1;ratioP1;P1;durP2;ratioP2;P2;SDS_P1;SDS_P2;PMS_P1;PMS_P2;Temp;Humidity;BMP_temperature;BMP_pressure;BME280_temperature;BME280_humidity;BME280_pressure;Samples;Min_cycle;Max_cycle;Signal;HPM_P1;HPM_P2
2022/01/15 00:00:11;;;;;;;45.35;8.02;;;;;;;7.68;60.61;102746.25;5987406;23;120967;-78
2022/01/15 00:02:40;;;;;;;36.10;6.97;;;;;;;7.62;60.46;102739.59;6011061;23;119826;-78
2022/01/15 00:05:06;;;;;;;38.10;7.30;;;;;;;7.65;60.88;102742.34;6012006;23;119922;-77
2022/01/15 00:07:31;;;;;;;35.92;7.00;;;;;;;7.71;60.28;102745.50;6011194;23;122674;-77
2022/01/15 00:09:57;;;;;;;44.58;7.03;;;;;;;7.68;60.06;102740.78;6011810;23;119635;-78
2022/01/15 00:12:22;;;;;;;47.47;8.13;;;;;;;7.69;59.87;102726.75;6015943;23;121563;-78
2022/01/15 00:14:48;;;;;;;46.47;8.10;;;;;;;7.70;60.30;102736.50;6012050;23;119970;-78
2022/01/15 00:17:19;;;;;;;38.33;7.45;;;;;;;7.76;60.61;102744.34;6061774;23;119153;-78
2022/01/15 00:19:46;;;;;;;44.13;7.22;;;;;;;7.77;60.51;102741.22;6009437;23;122119;-79
2022/01/15 00:22:17;;;;;;;38.53;7.55;;;;;;;7.77;59.71;102738.50;6035580;23;119373;-79
2022/01/15 00:24:45;;;;;;;33.30;7.45;;;;;;;7.75;59.56;102735.38;6012230;23;121718;-79
2022/01/15 00:27:14;;;;;;;44.63;7.72;;;;;;;7.77;59.84;102730.31;6011398;23;120064;-78
2022/01/15 00:29:40;;;;;;;47.58;7.97;;;;;;;7.78;59.79;102725.63;6036205;23;119604;-77
2022/01/15 00:32:07;;;;;;;41.80;7.80;;;;;;;7.77;59.47;102727.56;6039162;23;122059;-78
2022/01/15 00:34:35;;;;;;;44.63;6.95;;;;;;;7.76;59.75;102722.50;6011781;23;119802;-79
2022/01/15 00:37:02;;;;;;;43.97;8.02;;;;;;;7.80;59.97;102735.00;6036081;23;120002;-80
2022/01/15 00:39:29;;;;;;;41.45;8.25;;;;;;;7.74;59.82;102711.94;6034838;23;122820;-78
2022/01/15 00:41:55;;;;;;;41.88;7.55;;;;;;;7.78;59.87;102720.94;6062055;23;119802;-80
2022/01/15 00:44:20;;;;;;;37.00;6.53;;;;;;;7.78;59.65;102711.97;6011270;23;119265;-79
2022/01/15 00:46:46;;;;;;;47.33;8.60;;;;;;;7.77;59.66;102707.66;5987366;23;121134;-80
2022/01/15 00:49:12;;;;;;;48.70;7.80;;;;;;;7.85;59.95;102712.03;6035482;23;119345;-79
2022/01/15 00:51:38;;;;;;;40.47;7.75;;;;;;;7.85;59.54;102704.59;6011439;23;122370;-77
2022/01/15 00:54:05;;;;;;;42.60;7.93;;;;;;;7.83;58.88;102698.75;6015316;23;120135;-78
2022/01/15 00:56:39;;;;;;;37.22;7.05;;;;;;;7.78;59.03;102704.53;6014060;23;121748;-77
2022/01/15 00:59:05;;;;;;;38.78;7.85;;;;;;;7.69;59.09;102687.72;6059140;23;123073;-79
2022/01/15 01:01:30;;;;;;;39.13;7.00;;;;;;;7.70;58.95;102689.28;6011677;23;119415;-78
2022/01/15 01:03:56;;;;;;;35.15;7.53;;;;;;;7.59;58.83;102686.50;6012784;23;120686;-78
2022/01/15 01:06:22;;;;;;;41.53;10.07;;;;;;;7.60;58.98;102687.28;6063117;23;119726;-82
2022/01/15 01:08:47;;;;;;;49.42;10.57;;;;;;;7.53;59.36;102684.50;6038970;23;119563;-77
2022/01/15 01:11:16;;;;;;;50.45;12.68;;;;;;;7.55;59.53;102688.41;6014082;23;119727;-78
2022/01/15 01:24:26;;;;;;;28.10;6.30;;;;;;;7.43;58.90;102696.13;6063989;23;119510;-79
2022/01/15 01:27:03;;;;;;;37.10;7.35;;;;;;;7.39;59.46;102696.91;6063469;23;120300;-78
2022/01/15 01:32:25;;;;;;;37.90;7.55;;;;;;;7.38;60.53;102689.88;6013885;23;122589;-77
2022/01/15 01:34:50;;;;;;;41.95;7.53;;;;;;;7.42;60.11;102683.66;6013130;23;122371;-79
2022/01/15 01:37:23;;;;;;;38.47;7.28;;;;;;;7.44;60.19;102687.56;6038171;23;119524;-79
2022/01/15 01:40:06;;;;;;;39.13;7.40;;;;;;;7.44;59.44;102681.31;6042393;23;121496;-79
2022/01/15 01:42:41;;;;;;;39.45;7.53;;;;;;;7.35;59.98;102678.94;6012710;23;119719;-79
2022/01/15 01:45:12;;;;;;;41.38;7.38;;;;;;;7.36;59.99;102675.03;6038407;23;121207;-78
2022/01/15 01:47:42;;;;;;;46.35;7.43;;;;;;;7.35;60.49;102676.97;6013695;23;122638;-78
2022/01/15 01:50:21;;;;;;;42.15;6.97;;;;;;;7.38;60.29;102681.69;6013926;23;119807;-78
2022/01/15 01:52:50;;;;;;;39.28;6.18;;;;;;;7.42;59.71;102673.50;6013825;23;123172;-79
2022/01/15 01:55:18;;;;;;;35.15;6.38;;;;;;;7.39;59.59;102666.88;6035519;23;119713;-79
2022/01/15 01:57:45;;;;;;;34.25;6.82;;;;;;;7.38;59.50;102657.09;6012038;23;119276;-80
2022/01/15 02:00:14;;;;;;;36.50;8.05;;;;;;;7.37;59.95;102661.00;6036199;23;119622;-78
2022/01/15 02:02:43;;;;;;;45.95;8.25;;;;;;;7.39;60.27;102652.44;6064226;23;121674;-78
2022/01/15 02:05:09;;;;;;;42.90;8.20;;;;;;;7.36;60.06;102643.06;6037030;23;120818;-79
2022/01/15 02:07:36;;;;;;;34.80;6.70;;;;;;;7.42;60.52;102651.66;6037035;23;122512;-79
2022/01/15 02:10:05;;;;;;;41.13;7.65;;;;;;;7.48;60.35;102657.53;6012331;23;119394;-79
2022/01/15 02:12:30;;;;;;;44.47;7.57;;;;;;;7.50;60.74;102647.81;6036026;23;119269;-78
2022/01/15 02:14:56;;;;;;;35.83;7.93;;;;;;;7.56;61.14;102659.16;6035839;23;120110;-78
2022/01/15 02:17:22;;;;;;;35.47;7.20;;;;;;;7.65;61.24;102660.38;6012354;23;119500;-79
2022/01/15 02:20:11;;;;;;;31.63;7.25;;;;;;;7.67;61.31;102646.34;6036768;23;119345;-77
2022/01/15 02:25:18;;;;;;;36.40;6.30;;;;;;;7.77;59.92;102647.56;6041329;23;119272;-77
2022/01/15 02:27:44;;;;;;;32.45;6.32;;;;;;;7.77;59.84;102647.56;5987412;23;122504;-78
2022/01/15 02:30:11;;;;;;;42.95;7.00;;;;;;;7.81;59.88;102654.63;6036777;23;119658;-79
2022/01/15 02:32:39;;;;;;;34.33;6.97;;;;;;;7.82;59.96;102649.94;6062197;23;119297;-79
2022/01/15 02:35:12;;;;;;;37.90;6.93;;;;;;;7.80;59.97;102633.91;6011904;23;119655;-79
2022/01/15 02:37:37;;;;;;;31.85;6.47;;;;;;;7.86;60.86;102631.63;6012075;23;119650;-80
2022/01/15 02:40:03;;;;;;;38.78;7.15;;;;;;;7.85;60.47;102630.84;6036629;23;122670;-78
2022/01/15 02:42:32;;;;;;;34.13;6.35;;;;;;;7.89;60.55;102626.16;5987700;23;122604;-80
2022/01/15 02:45:01;;;;;;;33.88;6.97;;;;;;;7.95;61.03;102626.56;6018397;23;119795;-78
2022/01/15 02:50:11;;;;;;;33.60;6.47;;;;;;;7.95;60.03;102624.63;6037618;23;119480;-80
2022/01/15 02:52:39;;;;;;;33.13;6.93;;;;;;;8.02;59.56;102629.31;5989322;23;121765;-79
2022/01/15 02:55:08;;;;;;;29.52;6.00;;;;;;;7.95;59.87;102612.91;6012820;23;122274;-79
2022/01/15 02:57:34;;;;;;;33.35;6.30;;;;;;;8.01;59.73;102620.34;6037538;23;119292;-78
2022/01/15 03:00:00;;;;;;;32.85;6.68;;;;;;;7.99;59.63;102619.94;6061965;23;120744;-78
2022/01/15 03:02:31;;;;;;;37.10;6.75;;;;;;;8.04;60.47;102623.47;5987861;23;122938;-79
2022/01/15 03:04:56;;;;;;;37.20;6.93;;;;;;;8.08;60.66;102621.53;6062241;23;119965;-78
2022/01/15 03:07:22;;;;;;;39.17;6.75;;;;;;;8.10;60.53;102614.53;6067546;23;119371;-78
2022/01/15 03:09:47;;;;;;;33.67;6.28;;;;;;;8.15;60.15;102605.16;6037949;23;119706;-80
2022/01/15 03:12:13;;;;;;;28.65;6.22;;;;;;;8.19;59.81;102606.72;6037033;23;119497;-79
2022/01/15 03:14:39;;;;;;;30.02;6.20;;;;;;;8.17;60.68;102589.16;5989860;23;123254;-78
2022/01/15 03:17:04;;;;;;;36.30;6.28;;;;;;;8.18;60.09;102591.50;6012936;23;119634;-78
2022/01/15 03:19:33;;;;;;;37.47;6.53;;;;;;;8.29;60.34;102607.94;6037482;23;119590;-78
2022/01/15 03:21:58;;;;;;;38.42;6.25;;;;;;;8.22;60.73;102583.28;6036800;23;120060;-77
2022/01/15 03:24:24;;;;;;;40.92;7.13;;;;;;;8.33;60.84;102589.59;6012678;23;120014;-78
2022/01/15 03:26:49;;;;;;;33.55;5.75;;;;;;;8.41;60.15;102590.41;6037529;23;119764;-79
2022/01/15 03:29:15;;;;;;;34.97;6.43;;;;;;;8.40;60.34;102583.38;6017698;23;119730;-78
2022/01/15 03:31:43;;;;;;;38.80;6.72;;;;;;;8.42;59.59;102581.81;6037572;23;120150;-79
2022/01/15 03:34:08;;;;;;;35.25;6.72;;;;;;;8.46;59.74;102587.28;6037479;23;119803;-79
2022/01/15 03:36:34;;;;;;;31.27;6.05;;;;;;;8.40;59.96;102578.69;6014820;23;120299;-79
2022/01/15 03:38:59;;;;;;;37.47;6.72;;;;;;;8.43;59.18;102574.38;6065286;23;119400;-79
2022/01/15 03:41:25;;;;;;;32.42;6.18;;;;;;;8.51;58.97;102595.88;6037823;23;122745;-80
2022/01/15 03:43:53;;;;;;;29.90;6.05;;;;;;;8.52;58.95;102593.94;6038794;23;119786;-78
2022/01/15 03:46:20;;;;;;;30.45;5.82;;;;;;;8.47;59.35;102575.94;6065103;23;119443;-79
2022/01/15 03:48:47;;;;;;;36.03;5.70;;;;;;;8.48;59.18;102579.47;6038591;23;119626;-79
2022/01/15 03:51:14;;;;;;;34.47;5.93;;;;;;;8.47;59.36;102584.16;6019667;23;119340;-79
2022/01/15 03:53:40;;;;;;;30.70;6.15;;;;;;;8.54;59.50;102586.91;6037957;23;119872;-77
2022/01/15 03:56:05;;;;;;;32.60;6.07;;;;;;;8.59;59.81;102591.97;6065201;23;119456;-78
2022/01/15 03:58:31;;;;;;;35.17;6.38;;;;;;;8.63;59.57;102591.19;6038214;23;121610;-79
2022/01/15 04:00:57;;;;;;;36.33;6.65;;;;;;;8.65;58.99;102588.84;5989892;23;121089;-79
2022/01/15 04:03:23;;;;;;;30.35;6.30;;;;;;;8.67;59.27;102589.25;6013877;23;119380;-78
2022/01/15 04:05:48;;;;;;;34.50;6.53;;;;;;;8.65;59.97;102599.78;6038901;23;121507;-77
2022/01/15 04:08:14;;;;;;;31.20;6.13;;;;;;;8.72;59.42;102594.31;5989684;23;121131;-79
2022/01/15 04:10:40;;;;;;;37.10;9.45;;;;;;;8.72;58.85;102595.09;6038919;23;119334;-78
2022/01/15 04:13:05;;;;;;;29.63;6.07;;;;;;;8.71;58.43;102590.81;6041923;23;120603;-79
2022/01/15 04:15:31;;;;;;;26.33;5.55;;;;;;;8.61;58.50;102580.66;6014762;23;119312;-78
2022/01/15 04:18:00;;;;;;;29.55;6.45;;;;;;;8.56;58.37;102578.31;6014645;23;119539;-78
2022/01/15 04:20:25;;;;;;;25.80;5.57;;;;;;;8.60;59.00;102598.25;6037720;23;122745;-78
2022/01/15 04:22:52;;;;;;;30.17;5.72;;;;;;;8.59;58.48;102597.47;5989846;23;119428;-77
2022/01/15 04:25:19;;;;;;;33.92;6.03;;;;;;;8.55;58.08;102593.94;5990116;23;121811;-78
2022/01/15 04:27:46;;;;;;;27.73;5.85;;;;;;;8.53;59.00;102590.03;6038541;23;119894;-78
2022/01/15 04:30:17;;;;;;;27.38;5.90;;;;;;;8.48;58.69;102573.97;6014279;23;119835;-78
2022/01/15 04:32:43;;;;;;;34.47;5.68;;;;;;;8.31;58.67;102561.84;6043612;23;119527;-78
2022/01/15 04:35:12;;;;;;;27.38;5.25;;;;;;;8.40;58.56;102584.16;6039068;23;119514;-78
2022/01/15 04:37:42;;;;;;;23.38;4.88;;;;;;;8.36;57.88;102575.16;6038400;23;122780;-78
2022/01/15 04:40:09;;;;;;;23.00;5.35;;;;;;;8.30;58.02;102580.22;6064311;23;121433;-78
2022/01/15 04:42:35;;;;;;;28.33;5.22;;;;;;;8.19;58.23;102573.91;6038179;23;119322;-78
2022/01/15 04:45:03;;;;;;;24.77;5.18;;;;;;;8.16;57.94;102576.66;6065294;23;119426;-79
2022/01/15 04:47:31;;;;;;;27.33;4.72;;;;;;;8.04;58.62;102568.78;6064109;23;120194;-78
2022/01/15 04:49:58;;;;;;;24.48;5.10;;;;;;;8.00;57.91;102566.06;6065181;23;119253;-77
2022/01/15 04:52:24;;;;;;;27.17;5.05;;;;;;;7.93;58.18;102566.03;6063259;23;119217;-76
2022/01/15 04:54:50;;;;;;;21.33;4.50;;;;;;;7.86;58.59;102566.81;6018805;23;120313;-76
2022/01/15 04:57:19;;;;;;;25.98;5.13;;;;;;;7.68;58.79;102546.84;6015577;23;119925;-78
2022/01/15 04:59:45;;;;;;;29.60;5.40;;;;;;;7.70;58.39;102569.09;6012719;23;122540;-78
2022/01/15 05:02:10;;;;;;;21.20;4.60;;;;;;;7.69;58.37;102578.44;6013159;23;119891;-79
2022/01/15 05:04:38;;;;;;;25.10;4.68;;;;;;;7.62;58.35;102571.03;6064337;23;119182;-77
2022/01/15 05:07:04;;;;;;;29.85;5.60;;;;;;;7.56;58.81;102567.06;6038037;23;119663;-78
2022/01/15 05:09:30;;;;;;;29.15;5.40;;;;;;;7.46;58.51;102573.28;6064051;23;120241;-78
2022/01/15 05:12:02;;;;;;;24.55;5.38;;;;;;;7.43;58.54;102571.31;6063367;23;119381;-77
2022/01/15 05:14:28;;;;;;;26.65;6.05;;;;;;;7.37;58.88;102568.16;6035921;23;119727;-77
2022/01/15 05:16:53;;;;;;;24.02;4.65;;;;;;;7.38;58.78;102575.19;6068495;23;119645;-77
2022/01/15 05:19:19;;;;;;;23.33;4.68;;;;;;;7.31;58.57;102564.22;6012718;23;122945;-78
2022/01/15 05:21:47;;;;;;;22.33;4.93;;;;;;;7.24;58.65;102569.66;6037995;23;119690;-79
2022/01/15 05:24:15;;;;;;;23.60;4.30;;;;;;;7.11;58.49;102565.69;5989387;23;121656;-78
2022/01/15 05:26:41;;;;;;;29.70;4.95;;;;;;;7.11;58.85;102554.75;6037542;23;123014;-76
2022/01/15 05:29:06;;;;;;;22.08;4.78;;;;;;;7.09;59.09;102554.34;6014657;23;119964;-79
2022/01/15 05:31:32;;;;;;;23.42;5.07;;;;;;;7.04;59.04;102543.78;6038582;23;119531;-78
2022/01/15 05:33:58;;;;;;;20.33;4.60;;;;;;;7.01;59.35;102552.72;6063209;23;119692;-77
2022/01/15 05:36:23;;;;;;;18.75;3.42;;;;;;;7.02;59.01;102548.84;5990494;23;119651;-78
2022/01/15 05:38:49;;;;;;;23.90;4.40;;;;;;;7.00;59.17;102545.72;6041607;23;121709;-78
2022/01/15 05:41:15;;;;;;;28.08;5.07;;;;;;;6.97;58.43;102541.00;5988728;23;119869;-78
2022/01/15 05:43:40;;;;;;;34.65;5.30;;;;;;;6.97;58.76;102549.19;6013620;23;120036;-79
2022/01/15 05:46:06;;;;;;;22.80;4.18;;;;;;;6.92;58.50;102550.34;6062504;23;122455;-77
2022/01/15 05:48:32;;;;;;;21.55;4.22;;;;;;;6.87;58.77;102552.66;6062447;23;119827;-78
2022/01/15 05:50:57;;;;;;;20.13;4.55;;;;;;;6.78;58.95;102548.28;5989556;23;120736;-78
2022/01/15 05:53:23;;;;;;;21.83;4.13;;;;;;;6.80;59.02;102560.75;6060833;23;122688;-78
2022/01/15 05:55:48;;;;;;;22.90;4.20;;;;;;;6.77;59.03;102560.34;5989896;23;119883;-75
2022/01/15 05:58:14;;;;;;;21.67;4.57;;;;;;;6.75;59.21;102557.22;6037748;23;119500;-77
2022/01/15 06:00:40;;;;;;;19.52;4.20;;;;;;;6.74;59.33;102552.16;6042126;23;123406;-78
2022/01/15 06:03:05;;;;;;;24.73;4.47;;;;;;;6.74;59.31;102558.38;6013380;23;119658;-78
2022/01/15 06:05:34;;;;;;;26.40;4.97;;;;;;;6.69;59.50;102547.84;5990143;23;122755;-79
2022/01/15 06:08:08;;;;;;;23.02;4.25;;;;;;;6.66;58.73;102545.88;6013000;23;119980;-75
2022/01/15 06:10:34;;;;;;;27.08;4.55;;;;;;;6.57;58.85;102545.38;6063171;23;119188;-79
2022/01/15 06:13:00;;;;;;;23.98;4.63;;;;;;;6.61;58.72;102548.91;6061928;23;119605;-77
2022/01/15 06:15:25;;;;;;;26.38;4.32;;;;;;;6.58;58.63;102554.34;6063246;23;119294;-77
2022/01/15 06:17:51;;;;;;;26.65;4.20;;;;;;;6.55;58.93;102544.97;6063431;23;119212;-76
2022/01/15 06:20:17;;;;;;;23.17;4.15;;;;;;;6.54;58.90;102557.06;6062455;23;120182;-75
2022/01/15 06:22:45;;;;;;;24.42;4.10;;;;;;;6.48;58.49;102544.94;5993123;23;119757;-77
2022/01/15 06:25:11;;;;;;;24.38;4.20;;;;;;;6.53;59.00;102555.47;6062820;23;119603;-76
2022/01/15 06:27:37;;;;;;;21.48;3.92;;;;;;;6.44;59.25;102539.44;6064464;23;119864;-75
2022/01/15 06:30:03;;;;;;;18.98;4.30;;;;;;;6.49;59.27;102546.50;6014328;23;119290;-75
2022/01/15 06:32:35;;;;;;;21.73;4.20;;;;;;;6.51;59.20;102549.63;6061859;23;120317;-75
2022/01/15 06:35:08;;;;;;;26.05;4.55;;;;;;;6.45;58.89;102543.75;6062711;23;119522;-75
2022/01/15 06:37:34;;;;;;;25.80;4.78;;;;;;;6.43;58.88;102543.34;6012622;23;119270;-75
2022/01/15 06:40:00;;;;;;;26.00;4.88;;;;;;;6.52;59.04;102564.81;6011883;23;119742;-75
2022/01/15 06:42:26;;;;;;;22.00;4.90;;;;;;;6.46;59.20;102552.72;6040921;23;119547;-76
2022/01/15 06:44:51;;;;;;;27.15;4.80;;;;;;;6.55;59.62;102560.56;6060084;23;123286;-75
2022/01/15 06:47:17;;;;;;;27.60;5.03;;;;;;;6.54;59.09;102548.09;6062836;23;119594;-76
2022/01/15 06:49:43;;;;;;;28.30;4.97;;;;;;;6.52;59.28;102551.19;6013699;23;123234;-75
2022/01/15 06:52:08;;;;;;;25.65;4.97;;;;;;;6.58;59.16;102554.34;6060931;23;122525;-76
2022/01/15 06:54:34;;;;;;;25.73;4.30;;;;;;;6.46;59.23;102537.13;6063929;23;120178;-75
2022/01/15 06:56:59;;;;;;;24.30;5.03;;;;;;;6.51;59.56;102538.72;6014145;23;121764;-76
2022/01/15 06:59:25;;;;;;;25.27;4.72;;;;;;;6.55;59.54;102555.88;6012214;23;122653;-75
2022/01/15 07:01:50;;;;;;;21.38;4.18;;;;;;;6.46;59.05;102549.97;6014221;23;120026;-75
2022/01/15 07:04:16;;;;;;;20.25;4.38;;;;;;;6.51;59.39;102560.53;5994067;23;121225;-75
2022/01/15 07:06:42;;;;;;;29.17;4.53;;;;;;;6.48;59.20;102555.84;6015078;23;119339;-76
2022/01/15 07:09:07;;;;;;;23.33;4.20;;;;;;;6.47;59.08;102554.28;6015095;23;119509;-77
2022/01/15 07:11:33;;;;;;;23.50;4.13;;;;;;;6.38;59.39;102540.94;6014255;23;123171;-75
2022/01/15 07:13:58;;;;;;;28.17;5.20;;;;;;;6.38;59.05;102534.69;6038567;23;119691;-75
2022/01/15 07:16:24;;;;;;;24.98;4.78;;;;;;;6.37;59.00;102536.63;6065410;23;119157;-75
2022/01/15 07:18:50;;;;;;;24.65;4.68;;;;;;;6.38;59.06;102537.44;6038423;23;122442;-76
2022/01/15 07:21:15;;;;;;;23.98;5.05;;;;;;;6.35;59.02;102533.50;6063382;23;119413;-74
2022/01/15 07:23:41;;;;;;;22.60;4.63;;;;;;;6.33;58.94;102530.38;6038914;23;119269;-75
2022/01/15 07:26:07;;;;;;;28.77;5.13;;;;;;;6.29;59.12;102524.13;6019340;23;122499;-77
2022/01/15 07:28:32;;;;;;;24.80;5.72;;;;;;;6.31;59.11;102534.66;6039098;23;120026;-76
2022/01/15 07:30:58;;;;;;;24.90;4.95;;;;;;;6.29;59.14;102537.75;6038610;23;120622;-76
2022/01/15 07:33:24;;;;;;;24.73;5.07;;;;;;;6.28;59.10;102535.41;6038432;23;119382;-76
2022/01/15 07:35:51;;;;;;;23.55;5.40;;;;;;;6.26;58.97;102535.78;6013863;23;121258;-77
2022/01/15 07:38:17;;;;;;;20.90;4.65;;;;;;;6.21;59.40;102532.63;6037199;23;119579;-76
2022/01/15 07:40:43;;;;;;;25.15;5.20;;;;;;;6.21;58.92;102535.34;6037303;23;119492;-77
2022/01/15 07:43:09;;;;;;;20.33;4.65;;;;;;;6.13;58.95;102532.53;6013707;23;121815;-76
2022/01/15 07:45:35;;;;;;;26.83;5.88;;;;;;;6.11;58.59;102515.78;6064103;23;119802;-77
2022/01/15 07:48:01;;;;;;;24.23;5.18;;;;;;;6.13;59.20;102523.56;6043674;23;119651;-76
2022/01/15 07:50:26;;;;;;;22.63;5.05;;;;;;;6.14;59.07;102522.41;6038238;23;119653;-76
2022/01/15 07:52:53;;;;;;;24.90;4.80;;;;;;;6.17;58.92;102526.34;6014126;23;120161;-75
2022/01/15 07:55:20;;;;;;;26.08;4.75;;;;;;;6.15;59.25;102521.25;6064877;23;119261;-77
2022/01/15 07:57:45;;;;;;;24.48;5.43;;;;;;;6.12;59.41;102509.16;6013311;23;123012;-77
2022/01/15 08:00:12;;;;;;;28.90;5.93;;;;;;;6.17;59.23;102518.97;5990616;23;119693;-76
2022/01/15 08:02:38;;;;;;;21.77;4.90;;;;;;;6.17;59.38;102518.97;6013724;23;121681;-79
2022/01/15 08:05:05;;;;;;;25.00;4.80;;;;;;;6.11;59.34;102504.09;6014062;23;122415;-76
2022/01/15 08:07:31;;;;;;;23.45;5.10;;;;;;;6.19;59.63;102518.59;6062876;23;120036;-78
2022/01/15 08:09:56;;;;;;;29.55;5.28;;;;;;;6.15;59.58;102511.16;6019464;23;119511;-76
2022/01/15 08:12:22;;;;;;;22.08;4.72;;;;;;;6.14;59.44;102512.28;6014009;23;119710;-78
2022/01/15 08:14:50;;;;;;;26.92;5.20;;;;;;;6.22;59.97;102515.09;6038865;23;121582;-76
2022/01/15 08:17:16;;;;;;;23.95;5.10;;;;;;;6.24;59.90;102515.50;6062325;23;122669;-77
2022/01/15 08:19:41;;;;;;;21.48;5.18;;;;;;;6.27;59.85;102517.47;6014790;23;119413;-78
2022/01/15 08:22:07;;;;;;;26.83;4.95;;;;;;;6.23;59.68;102508.50;5990291;23;121156;-78
2022/01/15 08:24:33;;;;;;;21.35;4.80;;;;;;;6.30;60.05;102517.50;5989926;23;122474;-78
2022/01/15 08:26:58;;;;;;;25.83;5.20;;;;;;;6.34;60.40;102514.81;6038822;23;119749;-77
2022/01/15 08:29:24;;;;;;;22.38;4.78;;;;;;;6.40;59.89;102521.50;6014947;23;119548;-77
2022/01/15 08:31:57;;;;;;;19.92;4.82;;;;;;;6.39;60.29;102514.47;6069477;23;119992;-77
2022/01/15 08:34:23;;;;;;;24.73;5.63;;;;;;;6.46;60.18;102518.03;6038376;23;119635;-78
2022/01/15 08:36:50;;;;;;;30.67;5.97;;;;;;;6.50;60.43;102517.28;6014129;23;122827;-79
2022/01/15 08:39:15;;;;;;;26.20;6.22;;;;;;;6.53;60.26;102513.81;6013960;23;120187;-76
2022/01/15 08:41:48;;;;;;;34.30;6.90;;;;;;;6.50;60.44;102498.19;6014517;23;120766;-79
2022/01/15 08:44:24;;;;;;;25.42;6.82;;;;;;;6.55;60.92;102490.44;6063444;23;119955;-79
2022/01/15 08:46:51;;;;;;;34.70;6.70;;;;;;;6.58;60.64;102486.19;6039003;23;119295;-78
2022/01/15 08:49:18;;;;;;;34.72;6.75;;;;;;;6.67;60.56;102501.06;6038995;23;119928;-79
2022/01/15 08:51:44;;;;;;;33.38;7.15;;;;;;;6.70;60.96;102499.53;5994144;23;121373;-78
2022/01/15 08:54:09;;;;;;;26.23;6.03;;;;;;;6.67;60.76;102489.38;6064198;23;119694;-78
2022/01/15 08:56:35;;;;;;;35.85;7.85;;;;;;;6.77;60.66;102516.72;6038028;23;119609;-80
2022/01/15 08:59:03;;;;;;;33.25;6.65;;;;;;;6.76;60.76;102511.63;6038107;23;119376;-79
2022/01/15 09:01:29;;;;;;;28.58;7.18;;;;;;;6.82;61.07;102506.59;6038089;23;121625;-77
2022/01/15 09:03:57;;;;;;;29.55;7.13;;;;;;;6.89;61.01;102503.94;6012948;23;122478;-79
2022/01/15 09:06:23;;;;;;;26.20;6.30;;;;;;;6.97;61.55;102500.88;6064998;23;120120;-78
2022/01/15 09:08:49;;;;;;;31.83;7.47;;;;;;;7.03;61.51;102504.00;6014245;23;121659;-76
2022/01/15 09:11:15;;;;;;;32.92;6.70;;;;;;;7.05;61.00;102488.81;5989459;23;122365;-78
2022/01/15 09:13:41;;;;;;;32.55;7.13;;;;;;;7.09;61.30;102494.28;5994619;23;119534;-77
2022/01/15 09:16:07;;;;;;;27.77;7.18;;;;;;;7.12;61.43;102485.38;6064310;23;119892;-77
2022/01/15 09:18:34;;;;;;;32.28;7.90;;;;;;;7.27;61.52;102497.13;6038034;23;119795;-77
2022/01/15 09:21:01;;;;;;;28.38;7.30;;;;;;;7.26;61.50;102493.59;6014420;23;122578;-78
2022/01/15 09:23:27;;;;;;;31.15;7.03;;;;;;;7.35;61.45;102493.28;5989194;23;122616;-79
2022/01/15 09:25:53;;;;;;;32.40;7.25;;;;;;;7.47;61.77;102506.56;6014612;23;119363;-78
2022/01/15 09:31:02;;;;;;;28.23;7.22;;;;;;;7.63;61.61;102489.84;6013221;23;121827;-79
2022/01/15 09:33:28;;;;;;;36.50;6.97;;;;;;;7.69;61.04;102491.81;6037116;23;119514;-77
2022/01/15 09:35:53;;;;;;;35.30;7.35;;;;;;;7.74;61.33;102487.16;6018392;23;122356;-78
2022/01/15 09:38:20;;;;;;;33.90;6.65;;;;;;;7.86;61.66;102495.00;6064521;23;119229;-78
2022/01/15 09:40:46;;;;;;;35.25;7.20;;;;;;;7.93;61.85;102489.53;6038041;23;119248;-77
2022/01/15 09:43:14;;;;;;;26.90;5.82;;;;;;;7.97;61.39;102482.91;6013249;23;119978;-78
2022/01/15 09:45:40;;;;;;;28.92;6.53;;;;;;;8.08;60.81;102482.94;5966510;23;119530;-77
2022/01/15 09:48:06;;;;;;;30.27;5.90;;;;;;;8.13;60.50;102485.28;6064362;23;119317;-78
2022/01/15 09:50:36;;;;;;;32.83;6.40;;;;;;;8.22;61.14;102495.81;6037611;23;119767;-77
2022/01/15 09:53:02;;;;;;;30.02;6.28;;;;;;;8.28;61.19;102497.78;6013069;23;119596;-78
2022/01/15 09:55:27;;;;;;;31.83;6.70;;;;;;;8.34;61.06;102494.69;6014610;23;119287;-77
2022/01/15 09:57:54;;;;;;;30.40;6.00;;;;;;;8.43;60.91;102495.06;6018031;23;122619;-79
2022/01/15 10:00:21;;;;;;;26.75;6.25;;;;;;;8.48;60.93;102492.72;6014118;23;119895;-77
2022/01/15 10:02:51;;;;;;;28.30;5.97;;;;;;;8.55;60.97;102491.94;6062826;23;119636;-78
2022/01/15 10:05:19;;;;;;;27.73;6.22;;;;;;;8.61;60.49;102493.88;6038538;23;119757;-78
2022/01/15 10:08:05;;;;;;;33.70;6.47;;;;;;;8.70;60.53;102487.22;6062147;23;120906;-78
2022/01/15 10:10:33;;;;;;;27.15;5.53;;;;;;;8.78;61.00;102488.78;6013497;23;124325;-78
2022/01/15 10:13:22;;;;;;;28.73;6.10;;;;;;;8.86;60.17;102499.31;6013637;23;119583;-77
2022/01/15 10:15:50;;;;;;;30.73;6.35;;;;;;;8.89;60.85;102489.53;6038655;23;120778;-78
2022/01/15 10:18:31;;;;;;;28.23;5.93;;;;;;;8.98;60.15;102494.59;6013004;23;123282;-78
2022/01/15 10:21:16;;;;;;;28.15;6.20;;;;;;;9.09;61.03;102493.41;5995158;23;119300;-78
2022/01/15 10:23:51;;;;;;;26.95;6.43;;;;;;;9.12;59.99;102492.59;6038246;23;119932;-77
2022/01/15 10:26:24;;;;;;;33.75;6.72;;;;;;;9.15;59.62;102494.56;6039609;23;119229;-77
2022/01/15 10:28:59;;;;;;;32.70;6.10;;;;;;;9.19;59.13;102487.09;6039181;23;119577;-77
2022/01/15 10:31:27;;;;;;;33.20;6.63;;;;;;;9.28;60.09;102483.19;6014006;23;121730;-77
2022/01/15 10:33:57;;;;;;;32.10;6.65;;;;;;;9.32;59.66;102478.47;6038687;23;119849;-77
2022/01/15 10:36:30;;;;;;;36.85;6.68;;;;;;;9.35;58.82;102472.19;6015688;23;119450;-78
2022/01/15 10:39:17;;;;;;;34.22;6.43;;;;;;;9.38;58.96;102471.38;5990333;23;121926;-78
2022/01/15 10:41:44;;;;;;;31.50;6.53;;;;;;;9.49;59.42;102489.34;6014816;23;119485;-78
2022/01/15 10:44:33;;;;;;;29.73;7.28;;;;;;;9.51;58.70;102467.03;5994645;23;122543;-77
2022/01/15 10:47:07;;;;;;;31.65;5.95;;;;;;;9.58;58.98;102475.19;6039212;23;119634;-77
2022/01/15 10:49:33;;;;;;;45.23;8.33;;;;;;;9.61;58.70;102468.91;6014817;23;122236;-77
2022/01/15 10:52:12;;;;;;;29.52;7.53;;;;;;;9.66;58.85;102464.97;6013391;23;122589;-77
2022/01/15 10:55:01;;;;;;;31.60;6.65;;;;;;;9.71;58.82;102465.34;6038622;23;119545;-77
2022/01/15 10:57:46;;;;;;;32.88;7.75;;;;;;;9.75;58.45;102455.16;6039215;23;121749;-76
2022/01/15 11:00:22;;;;;;;33.42;8.50;;;;;;;9.80;58.44;102454.72;6038713;23;119717;-77
2022/01/15 11:02:53;;;;;;;36.08;6.95;;;;;;;9.87;58.16;102444.88;6013742;23;119643;-78
2022/01/15 11:05:43;;;;;;;29.48;6.57;;;;;;;9.90;58.17;102441.31;5994318;23;119862;-78
2022/01/15 11:08:37;;;;;;;28.10;6.57;;;;;;;9.96;58.53;102440.53;5988868;23;119485;-78
2022/01/15 11:11:05;;;;;;;;;;;;;;;9.99;58.13;102439.72;6062581;23;119671;-78
2022/01/15 11:13:39;;;;;;;35.08;7.10;;;;;;;10.04;57.49;102446.72;6061596;23;122850;-78
2022/01/15 11:16:10;;;;;;;30.75;6.35;;;;;;;10.07;57.84;102443.16;6014036;23;119430;-78
2022/01/15 11:18:39;;;;;;;33.25;6.88;;;;;;;10.04;57.85;102436.53;6014279;23;122139;-78
2022/01/15 11:21:10;;;;;;;35.03;7.20;;;;;;;10.13;57.64;102433.31;6013396;23;122729;-78
2022/01/15 11:23:38;;;;;;;37.78;6.82;;;;;;;10.15;57.63;102433.69;6063284;23;119313;-78
2022/01/15 11:26:09;;;;;;;29.58;7.07;;;;;;;10.20;57.39;102427.78;6037407;23;119289;-78
2022/01/15 11:28:35;;;;;;;30.33;7.00;;;;;;;10.24;57.81;102434.03;6017854;23;122493;-78
2022/01/15 11:31:04;;;;;;;35.80;7.90;;;;;;;10.28;57.03;102434.78;5989096;23;120723;-77
2022/01/15 11:33:41;;;;;;;30.88;7.63;;;;;;;10.35;57.29;102433.94;6036470;23;119812;-78
2022/01/15 11:36:26;;;;;;;32.78;7.35;;;;;;;10.33;57.56;102417.13;6013591;23;120127;-77
2022/01/15 11:38:52;;;;;;;36.03;7.18;;;;;;;10.40;57.15;102415.06;6038636;23;119983;-77
2022/01/15 11:41:27;;;;;;;29.65;6.80;;;;;;;10.55;57.01;102423.16;6012008;23;122683;-77